sensor_id;sensor_type;location;lat;lon;timestamp;temperature;humidity
37910;DHT22;23741;49.446;8.754;2024-02-26T00:00:06;12.60;59.30
37910;DHT22;23741;49.446;8.754;2024-02-26T00:02:10;12.60;59.40
37910;DHT22;23741;49.446;8.754;2024-02-26T00:04:12;12.60;59.50
37910;DHT22;23741;49.446;8.754;2024-02-26T00:06:14;12.60;59.50
37910;DHT22;23741;49.446;8.754;2024-02-26T00:08:16;12.60;59.60
37910;DHT22;23741;49.446;8.754;2024-02-26T00:10:18;12.60;59.60
37910;DHT22;23741;49.446;8.754;2024-02-26T00:12:20;12.60;59.60
37910;DHT22;23741;49.446;8.754;2024-02-26T00:14:22;12.60;59.60
37910;DHT22;23741;49.446;8.754;2024-02-26T00:16:24;12.60;59.80
37910;DHT22;23741;49.446;8.754;2024-02-26T00:18:26;12.50;59.70
37910;DHT22;23741;49.446;8.754;2024-02-26T00:20:28;12.50;59.80
37910;DHT22;23741;49.446;8.754;2024-02-26T00:22:30;12.50;59.80
37910;DHT22;23741;49.446;8.754;2024-02-26T00:24:32;12.50;59.70
37910;DHT22;23741;49.446;8.754;2024-02-26T00:26:33;12.50;59.80
37910;DHT22;23741;49.446;8.754;2024-02-26T00:28:35;12.50;59.60
37910;DHT22;23741;49.446;8.754;2024-02-26T00:30:37;12.50;59.70
37910;DHT22;23741;49.446;8.754;2024-02-26T00:32:39;12.50;59.70
37910;DHT22;23741;49.446;8.754;2024-02-26T00:34:41;12.50;59.70
37910;DHT22;23741;49.446;8.754;2024-02-26T00:36:42;12.50;59.70
37910;DHT22;23741;49.446;8.754;2024-02-26T00:38:44;12.50;59.80
37910;DHT22;23741;49.446;8.754;2024-02-26T00:40:52;12.50;59.80
37910;DHT22;23741;49.446;8.754;2024-02-26T00:42:54;12.60;59.90
37910;DHT22;23741;49.446;8.754;2024-02-26T00:44:55;12.50;59.90
37910;DHT22;23741;49.446;8.754;2024-02-26T00:46:57;12.50;59.90
37910;DHT22;23741;49.446;8.754;2024-02-26T00:48:59;12.50;59.90
37910;DHT22;23741;49.446;8.754;2024-02-26T00:51:02;12.50;59.80
37910;DHT22;23741;49.446;8.754;2024-02-26T00:53:06;12.50;59.70
37910;DHT22;23741;49.446;8.754;2024-02-26T00:55:10;12.50;59.60
37910;DHT22;23741;49.446;8.754;2024-02-26T00:57:12;12.50;59.60
37910;DHT22;23741;49.446;8.754;2024-02-26T00:59:14;12.50;59.60
37910;DHT22;23741;49.446;8.754;2024-02-26T01:01:15;12.50;59.60
37910;DHT22;23741;49.446;8.754;2024-02-26T01:03:17;12.50;59.60
37910;DHT22;23741;49.446;8.754;2024-02-26T01:05:19;12.50;59.60
37910;DHT22;23741;49.446;8.754;2024-02-26T01:07:21;12.50;59.60
37910;DHT22;23741;49.446;8.754;2024-02-26T01:09:23;12.40;59.50
37910;DHT22;23741;49.446;8.754;2024-02-26T01:11:25;12.40;59.50
37910;DHT22;23741;49.446;8.754;2024-02-26T01:13:27;12.50;59.60
37910;DHT22;23741;49.446;8.754;2024-02-26T01:15:29;12.50;59.70
37910;DHT22;23741;49.446;8.754;2024-02-26T01:17:31;12.50;59.80
37910;DHT22;23741;49.446;8.754;2024-02-26T01:19:32;12.40;59.80
37910;DHT22;23741;49.446;8.754;2024-02-26T01:21:34;12.50;59.80
37910;DHT22;23741;49.446;8.754;2024-02-26T01:23:36;12.40;59.80
37910;DHT22;23741;49.446;8.754;2024-02-26T01:25:38;12.50;59.90
37910;DHT22;23741;49.446;8.754;2024-02-26T01:27:40;12.50;59.80
37910;DHT22;23741;49.446;8.754;2024-02-26T01:29:44;12.50;60.00
37910;DHT22;23741;49.446;8.754;2024-02-26T01:31:46;12.50;60.00
37910;DHT22;23741;49.446;8.754;2024-02-26T01:33:48;12.50;60.00
37910;DHT22;23741;49.446;8.754;2024-02-26T01:35:50;12.50;60.10
37910;DHT22;23741;49.446;8.754;2024-02-26T01:37:52;12.50;60.00
37910;DHT22;23741;49.446;8.754;2024-02-26T01:39:54;12.50;59.90
37910;DHT22;23741;49.446;8.754;2024-02-26T01:41:55;12.50;59.90
37910;DHT22;23741;49.446;8.754;2024-02-26T01:43:57;12.50;59.90
37910;DHT22;23741;49.446;8.754;2024-02-26T01:45:59;12.50;60.00
37910;DHT22;23741;49.446;8.754;2024-02-26T01:48:01;12.50;60.10
37910;DHT22;23741;49.446;8.754;2024-02-26T01:50:03;12.50;60.10
37910;DHT22;23741;49.446;8.754;2024-02-26T01:52:05;12.40;60.00
37910;DHT22;23741;49.446;8.754;2024-02-26T01:54:07;12.40;60.00
37910;DHT22;23741;49.446;8.754;2024-02-26T01:56:09;12.50;60.20
37910;DHT22;23741;49.446;8.754;2024-02-26T01:58:11;12.40;60.20
37910;DHT22;23741;49.446;8.754;2024-02-26T02:00:13;12.40;60.10
37910;DHT22;23741;49.446;8.754;2024-02-26T02:02:16;12.40;60.20
37910;DHT22;23741;49.446;8.754;2024-02-26T02:04:18;12.40;60.20
37910;DHT22;23741;49.446;8.754;2024-02-26T02:06:20;12.40;60.30
37910;DHT22;23741;49.446;8.754;2024-02-26T02:08:22;12.40;60.30
37910;DHT22;23741;49.446;8.754;2024-02-26T02:10:25;12.40;60.30
37910;DHT22;23741;49.446;8.754;2024-02-26T02:12:32;12.40;60.40
37910;DHT22;23741;49.446;8.754;2024-02-26T02:14:35;12.40;60.40
37910;DHT22;23741;49.446;8.754;2024-02-26T02:16:37;12.40;60.40
37910;DHT22;23741;49.446;8.754;2024-02-26T02:18:39;12.40;60.30
37910;DHT22;23741;49.446;8.754;2024-02-26T02:20:40;12.40;60.50
37910;DHT22;23741;49.446;8.754;2024-02-26T02:22:43;12.40;60.60
37910;DHT22;23741;49.446;8.754;2024-02-26T02:24:47;12.30;60.50
37910;DHT22;23741;49.446;8.754;2024-02-26T02:26:48;12.40;60.50
37910;DHT22;23741;49.446;8.754;2024-02-26T02:28:50;12.30;60.70
37910;DHT22;23741;49.446;8.754;2024-02-26T02:30:54;12.30;60.70
37910;DHT22;23741;49.446;8.754;2024-02-26T02:32:57;12.30;60.70
37910;DHT22;23741;49.446;8.754;2024-02-26T02:35:00;12.40;61.00
37910;DHT22;23741;49.446;8.754;2024-02-26T02:37:02;12.40;60.90
37910;DHT22;23741;49.446;8.754;2024-02-26T02:39:04;12.30;60.90
37910;DHT22;23741;49.446;8.754;2024-02-26T02:41:05;12.30;61.00
37910;DHT22;23741;49.446;8.754;2024-02-26T02:43:07;12.30;61.10
37910;DHT22;23741;49.446;8.754;2024-02-26T02:45:09;12.30;61.20
37910;DHT22;23741;49.446;8.754;2024-02-26T02:47:11;12.30;61.20
37910;DHT22;23741;49.446;8.754;2024-02-26T02:49:13;12.30;61.30
37910;DHT22;23741;49.446;8.754;2024-02-26T02:51:15;12.30;61.40
37910;DHT22;23741;49.446;8.754;2024-02-26T02:53:17;12.30;61.60
37910;DHT22;23741;49.446;8.754;2024-02-26T02:55:20;12.30;61.80
37910;DHT22;23741;49.446;8.754;2024-02-26T02:57:21;12.30;61.80
37910;DHT22;23741;49.446;8.754;2024-02-26T02:59:23;12.30;61.80
37910;DHT22;23741;49.446;8.754;2024-02-26T03:01:25;12.20;62.30
37910;DHT22;23741;49.446;8.754;2024-02-26T03:03:27;12.20;62.30
37910;DHT22;23741;49.446;8.754;2024-02-26T03:05:30;12.20;62.10
37910;DHT22;23741;49.446;8.754;2024-02-26T03:07:32;12.30;62.30
37910;DHT22;23741;49.446;8.754;2024-02-26T03:09:34;12.30;62.30
37910;DHT22;23741;49.446;8.754;2024-02-26T03:11:36;12.20;62.10
37910;DHT22;23741;49.446;8.754;2024-02-26T03:13:37;12.20;62.30
37910;DHT22;23741;49.446;8.754;2024-02-26T03:15:39;12.20;62.50
37910;DHT22;23741;49.446;8.754;2024-02-26T03:17:41;12.20;62.40
37910;DHT22;23741;49.446;8.754;2024-02-26T03:19:44;12.20;62.60
37910;DHT22;23741;49.446;8.754;2024-02-26T03:21:48;12.20;63.10
37910;DHT22;23741;49.446;8.754;2024-02-26T03:23:50;12.20;63.40
37910;DHT22;23741;49.446;8.754;2024-02-26T03:25:51;12.20;63.40
37910;DHT22;23741;49.446;8.754;2024-02-26T03:27:54;12.20;63.50
37910;DHT22;23741;49.446;8.754;2024-02-26T03:29:55;12.30;63.40
37910;DHT22;23741;49.446;8.754;2024-02-26T03:31:57;12.20;63.10
37910;DHT22;23741;49.446;8.754;2024-02-26T03:33:59;12.20;63.50
37910;DHT22;23741;49.446;8.754;2024-02-26T03:36:01;12.20;63.70
37910;DHT22;23741;49.446;8.754;2024-02-26T03:38:04;12.10;63.50
37910;DHT22;23741;49.446;8.754;2024-02-26T03:40:05;12.10;63.50
37910;DHT22;23741;49.446;8.754;2024-02-26T03:42:07;12.10;63.50
37910;DHT22;23741;49.446;8.754;2024-02-26T03:44:09;12.10;63.50
37910;DHT22;23741;49.446;8.754;2024-02-26T03:46:11;12.10;64.00
37910;DHT22;23741;49.446;8.754;2024-02-26T03:48:15;12.10;64.20
37910;DHT22;23741;49.446;8.754;2024-02-26T03:50:17;12.10;64.30
37910;DHT22;23741;49.446;8.754;2024-02-26T03:52:18;12.10;64.30
37910;DHT22;23741;49.446;8.754;2024-02-26T03:54:20;12.10;65.00
37910;DHT22;23741;49.446;8.754;2024-02-26T03:56:22;12.10;64.00
37910;DHT22;23741;49.446;8.754;2024-02-26T03:58:24;12.00;64.20
37910;DHT22;23741;49.446;8.754;2024-02-26T04:00:26;12.10;64.20
37910;DHT22;23741;49.446;8.754;2024-02-26T04:02:30;12.10;64.40
37910;DHT22;23741;49.446;8.754;2024-02-26T04:04:35;12.00;64.40
37910;DHT22;23741;49.446;8.754;2024-02-26T04:06:37;12.00;64.60
37910;DHT22;23741;49.446;8.754;2024-02-26T04:08:39;12.00;64.70
37910;DHT22;23741;49.446;8.754;2024-02-26T04:10:41;12.00;64.50
37910;DHT22;23741;49.446;8.754;2024-02-26T04:12:42;12.00;64.10
37910;DHT22;23741;49.446;8.754;2024-02-26T04:14:45;12.00;64.70
37910;DHT22;23741;49.446;8.754;2024-02-26T04:16:47;12.00;64.90
37910;DHT22;23741;49.446;8.754;2024-02-26T04:18:52;12.00;65.00
37910;DHT22;23741;49.446;8.754;2024-02-26T04:20:55;12.00;65.00
37910;DHT22;23741;49.446;8.754;2024-02-26T04:22:58;11.90;65.00
37910;DHT22;23741;49.446;8.754;2024-02-26T04:25:00;11.90;65.10
37910;DHT22;23741;49.446;8.754;2024-02-26T04:27:02;11.90;65.20
37910;DHT22;23741;49.446;8.754;2024-02-26T04:29:03;11.90;65.40
37910;DHT22;23741;49.446;8.754;2024-02-26T04:31:05;11.90;65.30
37910;DHT22;23741;49.446;8.754;2024-02-26T04:33:07;11.90;65.30
37910;DHT22;23741;49.446;8.754;2024-02-26T04:35:09;11.90;65.30
37910;DHT22;23741;49.446;8.754;2024-02-26T04:37:11;11.90;65.50
37910;DHT22;23741;49.446;8.754;2024-02-26T04:39:12;11.90;65.50
37910;DHT22;23741;49.446;8.754;2024-02-26T04:41:14;11.90;65.20
37910;DHT22;23741;49.446;8.754;2024-02-26T04:43:16;11.90;65.40
37910;DHT22;23741;49.446;8.754;2024-02-26T04:45:19;11.90;65.20
37910;DHT22;23741;49.446;8.754;2024-02-26T04:47:21;11.90;65.40
37910;DHT22;23741;49.446;8.754;2024-02-26T04:49:23;11.90;65.30
37910;DHT22;23741;49.446;8.754;2024-02-26T04:51:25;11.90;65.40
37910;DHT22;23741;49.446;8.754;2024-02-26T04:53:27;11.90;65.50
37910;DHT22;23741;49.446;8.754;2024-02-26T04:55:29;11.90;65.50
37910;DHT22;23741;49.446;8.754;2024-02-26T04:57:31;11.90;65.80
37910;DHT22;23741;49.446;8.754;2024-02-26T04:59:33;11.90;65.90
37910;DHT22;23741;49.446;8.754;2024-02-26T05:01:34;11.90;65.80
37910;DHT22;23741;49.446;8.754;2024-02-26T05:03:38;11.90;66.00
37910;DHT22;23741;49.446;8.754;2024-02-26T05:05:40;11.90;66.00
37910;DHT22;23741;49.446;8.754;2024-02-26T05:07:42;12.00;66.00
37910;DHT22;23741;49.446;8.754;2024-02-26T05:09:45;11.90;66.00
37910;DHT22;23741;49.446;8.754;2024-02-26T05:11:46;11.90;66.00
37910;DHT22;23741;49.446;8.754;2024-02-26T05:13:48;11.90;66.10
37910;DHT22;23741;49.446;8.754;2024-02-26T05:15:50;11.90;66.20
37910;DHT22;23741;49.446;8.754;2024-02-26T05:17:54;11.90;65.80
37910;DHT22;23741;49.446;8.754;2024-02-26T05:19:55;12.00;65.90
37910;DHT22;23741;49.446;8.754;2024-02-26T05:21:57;11.90;65.50
37910;DHT22;23741;49.446;8.754;2024-02-26T05:23:59;11.90;65.90
37910;DHT22;23741;49.446;8.754;2024-02-26T05:26:01;11.90;65.70
37910;DHT22;23741;49.446;8.754;2024-02-26T05:28:03;11.90;65.80
37910;DHT22;23741;49.446;8.754;2024-02-26T05:30:05;11.90;65.90
37910;DHT22;23741;49.446;8.754;2024-02-26T05:32:07;11.90;65.80
37910;DHT22;23741;49.446;8.754;2024-02-26T05:34:09;12.00;66.00
37910;DHT22;23741;49.446;8.754;2024-02-26T05:36:17;12.00;65.80
37910;DHT22;23741;49.446;8.754;2024-02-26T05:38:19;12.00;65.60
37910;DHT22;23741;49.446;8.754;2024-02-26T05:40:21;12.00;66.20
37910;DHT22;23741;49.446;8.754;2024-02-26T05:42:22;12.00;66.10
37910;DHT22;23741;49.446;8.754;2024-02-26T05:44:26;12.00;66.40
37910;DHT22;23741;49.446;8.754;2024-02-26T05:46:27;12.00;66.50
37910;DHT22;23741;49.446;8.754;2024-02-26T05:48:29;12.00;66.10
37910;DHT22;23741;49.446;8.754;2024-02-26T05:50:33;12.00;66.20
37910;DHT22;23741;49.446;8.754;2024-02-26T05:52:35;12.00;66.40
37910;DHT22;23741;49.446;8.754;2024-02-26T05:54:37;12.00;66.50
37910;DHT22;23741;49.446;8.754;2024-02-26T05:56:39;12.00;66.40
37910;DHT22;23741;49.446;8.754;2024-02-26T05:58:41;12.00;66.20
37910;DHT22;23741;49.446;8.754;2024-02-26T06:00:43;12.00;66.10
37910;DHT22;23741;49.446;8.754;2024-02-26T06:02:45;12.00;66.10
37910;DHT22;23741;49.446;8.754;2024-02-26T06:04:47;12.00;66.00
37910;DHT22;23741;49.446;8.754;2024-02-26T06:06:48;12.00;66.00
37910;DHT22;23741;49.446;8.754;2024-02-26T06:08:51;12.00;66.10
37910;DHT22;23741;49.446;8.754;2024-02-26T06:10:53;12.00;66.40
37910;DHT22;23741;49.446;8.754;2024-02-26T06:12:55;12.00;66.40
37910;DHT22;23741;49.446;8.754;2024-02-26T06:14:57;12.00;66.20
37910;DHT22;23741;49.446;8.754;2024-02-26T06:17:03;12.00;66.40
37910;DHT22;23741;49.446;8.754;2024-02-26T06:19:05;12.00;66.50
37910;DHT22;23741;49.446;8.754;2024-02-26T06:21:11;12.00;66.60
37910;DHT22;23741;49.446;8.754;2024-02-26T06:23:13;12.00;66.60
37910;DHT22;23741;49.446;8.754;2024-02-26T06:25:15;12.00;66.30
37910;DHT22;23741;49.446;8.754;2024-02-26T06:27:17;12.10;66.70
37910;DHT22;23741;49.446;8.754;2024-02-26T06:29:19;12.00;66.70
37910;DHT22;23741;49.446;8.754;2024-02-26T06:31:23;12.00;66.50
37910;DHT22;23741;49.446;8.754;2024-02-26T06:33:25;12.10;66.70
37910;DHT22;23741;49.446;8.754;2024-02-26T06:35:27;12.00;66.70
37910;DHT22;23741;49.446;8.754;2024-02-26T06:37:29;12.00;66.80
37910;DHT22;23741;49.446;8.754;2024-02-26T06:39:31;12.00;67.00
37910;DHT22;23741;49.446;8.754;2024-02-26T06:41:32;12.00;66.50
37910;DHT22;23741;49.446;8.754;2024-02-26T06:43:34;12.00;66.50
37910;DHT22;23741;49.446;8.754;2024-02-26T06:45:36;12.00;66.60
37910;DHT22;23741;49.446;8.754;2024-02-26T06:47:38;12.10;66.50
37910;DHT22;23741;49.446;8.754;2024-02-26T06:49:40;12.00;66.20
37910;DHT22;23741;49.446;8.754;2024-02-26T06:51:42;12.10;66.60
37910;DHT22;23741;49.446;8.754;2024-02-26T06:53:44;12.00;66.90
37910;DHT22;23741;49.446;8.754;2024-02-26T06:55:46;12.10;67.20
37910;DHT22;23741;49.446;8.754;2024-02-26T06:57:47;12.10;67.20
37910;DHT22;23741;49.446;8.754;2024-02-26T06:59:49;12.10;67.20
37910;DHT22;23741;49.446;8.754;2024-02-26T07:01:51;12.10;66.90
37910;DHT22;23741;49.446;8.754;2024-02-26T07:03:53;12.00;66.80
37910;DHT22;23741;49.446;8.754;2024-02-26T07:05:55;12.00;67.00
37910;DHT22;23741;49.446;8.754;2024-02-26T07:07:57;12.00;67.10
37910;DHT22;23741;49.446;8.754;2024-02-26T07:09:59;12.10;66.90
37910;DHT22;23741;49.446;8.754;2024-02-26T07:12:01;12.10;66.70
37910;DHT22;23741;49.446;8.754;2024-02-26T07:14:04;12.10;66.90
37910;DHT22;23741;49.446;8.754;2024-02-26T07:16:05;12.10;67.00
37910;DHT22;23741;49.446;8.754;2024-02-26T07:18:07;12.10;67.00
37910;DHT22;23741;49.446;8.754;2024-02-26T07:20:09;12.10;66.90
37910;DHT22;23741;49.446;8.754;2024-02-26T07:22:13;12.10;67.00
37910;DHT22;23741;49.446;8.754;2024-02-26T07:24:15;12.10;67.10
37910;DHT22;23741;49.446;8.754;2024-02-26T07:26:17;12.10;67.30
37910;DHT22;23741;49.446;8.754;2024-02-26T07:28:20;12.10;67.40
37910;DHT22;23741;49.446;8.754;2024-02-26T07:30:22;12.10;67.50
37910;DHT22;23741;49.446;8.754;2024-02-26T07:32:26;12.10;67.40
37910;DHT22;23741;49.446;8.754;2024-02-26T07:34:28;12.10;67.20
37910;DHT22;23741;49.446;8.754;2024-02-26T07:36:31;12.10;67.60
37910;DHT22;23741;49.446;8.754;2024-02-26T07:38:33;12.20;67.20
37910;DHT22;23741;49.446;8.754;2024-02-26T07:40:44;12.20;68.00
37910;DHT22;23741;49.446;8.754;2024-02-26T07:42:59;12.20;67.60
37910;DHT22;23741;49.446;8.754;2024-02-26T07:45:02;12.20;67.20
37910;DHT22;23741;49.446;8.754;2024-02-26T07:47:04;12.20;67.50
37910;DHT22;23741;49.446;8.754;2024-02-26T07:49:05;12.20;67.40
37910;DHT22;23741;49.446;8.754;2024-02-26T07:51:07;12.20;67.90
37910;DHT22;23741;49.446;8.754;2024-02-26T07:53:09;12.30;67.50
37910;DHT22;23741;49.446;8.754;2024-02-26T07:55:11;12.30;68.40
37910;DHT22;23741;49.446;8.754;2024-02-26T07:57:13;12.30;67.50
37910;DHT22;23741;49.446;8.754;2024-02-26T07:59:18;12.30;67.70
37910;DHT22;23741;49.446;8.754;2024-02-26T08:01:20;12.30;67.40
37910;DHT22;23741;49.446;8.754;2024-02-26T08:03:21;12.30;67.20
37910;DHT22;23741;49.446;8.754;2024-02-26T08:05:24;12.30;67.20
37910;DHT22;23741;49.446;8.754;2024-02-26T08:07:26;12.40;67.20
37910;DHT22;23741;49.446;8.754;2024-02-26T08:09:28;12.30;66.90
37910;DHT22;23741;49.446;8.754;2024-02-26T08:11:30;12.30;67.10
37910;DHT22;23741;49.446;8.754;2024-02-26T08:13:32;12.40;67.30
37910;DHT22;23741;49.446;8.754;2024-02-26T08:15:35;12.40;67.20
37910;DHT22;23741;49.446;8.754;2024-02-26T08:17:37;12.40;67.20
37910;DHT22;23741;49.446;8.754;2024-02-26T08:19:38;12.40;67.10
37910;DHT22;23741;49.446;8.754;2024-02-26T08:21:41;12.40;67.30
37910;DHT22;23741;49.446;8.754;2024-02-26T08:23:43;12.40;67.00
37910;DHT22;23741;49.446;8.754;2024-02-26T08:25:45;12.50;67.10
37910;DHT22;23741;49.446;8.754;2024-02-26T08:27:47;12.50;67.00
37910;DHT22;23741;49.446;8.754;2024-02-26T08:29:49;12.50;67.10
37910;DHT22;23741;49.446;8.754;2024-02-26T08:31:50;12.50;67.00
37910;DHT22;23741;49.446;8.754;2024-02-26T08:33:52;12.50;67.10
37910;DHT22;23741;49.446;8.754;2024-02-26T08:35:54;12.60;67.20
37910;DHT22;23741;49.446;8.754;2024-02-26T08:37:56;12.60;67.20
37910;DHT22;23741;49.446;8.754;2024-02-26T08:39:58;12.60;67.20
37910;DHT22;23741;49.446;8.754;2024-02-26T08:42:05;12.60;67.40
37910;DHT22;23741;49.446;8.754;2024-02-26T08:44:07;12.60;67.40
37910;DHT22;23741;49.446;8.754;2024-02-26T08:46:09;12.60;67.50
37910;DHT22;23741;49.446;8.754;2024-02-26T08:48:12;12.60;67.50
37910;DHT22;23741;49.446;8.754;2024-02-26T08:50:14;12.70;67.70
37910;DHT22;23741;49.446;8.754;2024-02-26T08:52:16;12.70;67.90
37910;DHT22;23741;49.446;8.754;2024-02-26T08:54:18;12.70;67.90
37910;DHT22;23741;49.446;8.754;2024-02-26T08:56:20;12.80;67.90
37910;DHT22;23741;49.446;8.754;2024-02-26T08:58:23;12.80;67.70
37910;DHT22;23741;49.446;8.754;2024-02-26T09:00:25;12.80;67.60
37910;DHT22;23741;49.446;8.754;2024-02-26T09:02:26;12.80;67.60
37910;DHT22;23741;49.446;8.754;2024-02-26T09:04:28;12.80;67.60
37910;DHT22;23741;49.446;8.754;2024-02-26T09:06:30;12.80;67.50
37910;DHT22;23741;49.446;8.754;2024-02-26T09:08:32;12.90;67.70
37910;DHT22;23741;49.446;8.754;2024-02-26T09:10:35;12.90;67.50
37910;DHT22;23741;49.446;8.754;2024-02-26T09:12:37;12.90;67.50
37910;DHT22;23741;49.446;8.754;2024-02-26T09:14:39;12.90;67.50
37910;DHT22;23741;49.446;8.754;2024-02-26T09:16:41;13.00;67.50
37910;DHT22;23741;49.446;8.754;2024-02-26T09:18:43;13.00;67.50
37910;DHT22;23741;49.446;8.754;2024-02-26T09:20:45;13.00;67.70
37910;DHT22;23741;49.446;8.754;2024-02-26T09:22:47;13.00;67.40
37910;DHT22;23741;49.446;8.754;2024-02-26T09:24:49;13.10;67.60
37910;DHT22;23741;49.446;8.754;2024-02-26T09:26:52;13.10;67.50
37910;DHT22;23741;49.446;8.754;2024-02-26T09:28:54;13.10;67.40
37910;DHT22;23741;49.446;8.754;2024-02-26T09:30:56;13.10;67.50
37910;DHT22;23741;49.446;8.754;2024-02-26T09:32:58;13.10;67.40
37910;DHT22;23741;49.446;8.754;2024-02-26T09:35:00;13.10;67.50
37910;DHT22;23741;49.446;8.754;2024-02-26T09:37:02;13.20;67.50
37910;DHT22;23741;49.446;8.754;2024-02-26T09:39:16;13.10;67.40
37910;DHT22;23741;49.446;8.754;2024-02-26T09:41:23;13.10;67.30
37910;DHT22;23741;49.446;8.754;2024-02-26T09:43:25;13.10;67.30
37910;DHT22;23741;49.446;8.754;2024-02-26T09:45:30;13.20;67.20
37910;DHT22;23741;49.446;8.754;2024-02-26T09:47:34;13.10;67.00
37910;DHT22;23741;49.446;8.754;2024-02-26T09:49:36;13.20;67.10
37910;DHT22;23741;49.446;8.754;2024-02-26T09:51:39;13.20;67.00
37910;DHT22;23741;49.446;8.754;2024-02-26T09:53:42;13.20;67.10
37910;DHT22;23741;49.446;8.754;2024-02-26T09:55:45;13.20;67.10
37910;DHT22;23741;49.446;8.754;2024-02-26T09:57:47;13.20;67.10
37910;DHT22;23741;49.446;8.754;2024-02-26T09:59:50;13.20;67.20
37910;DHT22;23741;49.446;8.754;2024-02-26T10:01:53;13.20;67.20
37910;DHT22;23741;49.446;8.754;2024-02-26T10:03:55;13.20;67.30
37910;DHT22;23741;49.446;8.754;2024-02-26T10:05:58;13.20;68.20
37910;DHT22;23741;49.446;8.754;2024-02-26T10:08:01;13.20;67.20
37910;DHT22;23741;49.446;8.754;2024-02-26T10:10:03;13.20;67.00
37910;DHT22;23741;49.446;8.754;2024-02-26T10:12:05;13.30;67.00
37910;DHT22;23741;49.446;8.754;2024-02-26T10:14:09;13.30;67.10
37910;DHT22;23741;49.446;8.754;2024-02-26T10:16:11;13.30;67.00
37910;DHT22;23741;49.446;8.754;2024-02-26T10:18:13;13.30;66.90
37910;DHT22;23741;49.446;8.754;2024-02-26T10:20:16;13.30;67.10
37910;DHT22;23741;49.446;8.754;2024-02-26T10:22:19;13.30;67.00
37910;DHT22;23741;49.446;8.754;2024-02-26T10:24:23;13.40;67.00
37910;DHT22;23741;49.446;8.754;2024-02-26T10:26:25;13.30;67.00
37910;DHT22;23741;49.446;8.754;2024-02-26T10:28:29;13.30;67.10
37910;DHT22;23741;49.446;8.754;2024-02-26T10:30:31;13.30;67.00
37910;DHT22;23741;49.446;8.754;2024-02-26T10:32:33;13.40;67.30
37910;DHT22;23741;49.446;8.754;2024-02-26T10:34:35;13.40;67.30
37910;DHT22;23741;49.446;8.754;2024-02-26T10:36:39;13.40;67.30
37910;DHT22;23741;49.446;8.754;2024-02-26T10:38:54;13.40;67.10
37910;DHT22;23741;49.446;8.754;2024-02-26T10:40:57;13.40;67.50
37910;DHT22;23741;49.446;8.754;2024-02-26T10:42:59;13.50;67.30
37910;DHT22;23741;49.446;8.754;2024-02-26T10:45:00;13.50;67.20
37910;DHT22;23741;49.446;8.754;2024-02-26T10:47:04;13.50;67.40
37910;DHT22;23741;49.446;8.754;2024-02-26T10:49:12;13.50;67.40
37910;DHT22;23741;49.446;8.754;2024-02-26T10:51:15;13.60;67.50
37910;DHT22;23741;49.446;8.754;2024-02-26T10:53:17;13.60;67.50
37910;DHT22;23741;49.446;8.754;2024-02-26T10:55:21;13.70;67.30
37910;DHT22;23741;49.446;8.754;2024-02-26T10:57:24;13.70;67.10
37910;DHT22;23741;49.446;8.754;2024-02-26T10:59:26;13.80;67.30
37910;DHT22;23741;49.446;8.754;2024-02-26T11:01:28;13.80;67.30
37910;DHT22;23741;49.446;8.754;2024-02-26T11:03:37;13.90;67.40
37910;DHT22;23741;49.446;8.754;2024-02-26T11:05:41;14.00;67.40
37910;DHT22;23741;49.446;8.754;2024-02-26T11:07:44;14.00;67.20
37910;DHT22;23741;49.446;8.754;2024-02-26T11:09:46;14.10;67.20
37910;DHT22;23741;49.446;8.754;2024-02-26T11:11:53;14.10;67.10
37910;DHT22;23741;49.446;8.754;2024-02-26T11:13:56;14.20;67.00
37910;DHT22;23741;49.446;8.754;2024-02-26T11:15:59;14.20;66.90
37910;DHT22;23741;49.446;8.754;2024-02-26T11:18:03;14.30;67.00
37910;DHT22;23741;49.446;8.754;2024-02-26T11:20:05;14.30;67.10
37910;DHT22;23741;49.446;8.754;2024-02-26T11:22:11;14.40;67.00
37910;DHT22;23741;49.446;8.754;2024-02-26T11:24:25;14.40;66.70
37910;DHT22;23741;49.446;8.754;2024-02-26T11:26:27;14.40;66.80
37910;DHT22;23741;49.446;8.754;2024-02-26T11:28:29;14.50;66.80
37910;DHT22;23741;49.446;8.754;2024-02-26T11:30:32;14.50;66.60
37910;DHT22;23741;49.446;8.754;2024-02-26T11:32:35;14.50;67.30
37910;DHT22;23741;49.446;8.754;2024-02-26T11:34:38;14.60;66.60
37910;DHT22;23741;49.446;8.754;2024-02-26T11:36:40;14.60;66.70
37910;DHT22;23741;49.446;8.754;2024-02-26T11:38:44;14.70;66.50
37910;DHT22;23741;49.446;8.754;2024-02-26T11:40:46;14.70;66.40
37910;DHT22;23741;49.446;8.754;2024-02-26T11:42:48;14.80;66.30
37910;DHT22;23741;49.446;8.754;2024-02-26T11:44:50;14.80;66.20
37910;DHT22;23741;49.446;8.754;2024-02-26T11:46:52;14.90;66.20
37910;DHT22;23741;49.446;8.754;2024-02-26T11:48:55;14.90;66.00
37910;DHT22;23741;49.446;8.754;2024-02-26T11:50:57;14.90;65.90
37910;DHT22;23741;49.446;8.754;2024-02-26T11:55:31;15.00;65.90
37910;DHT22;23741;49.446;8.754;2024-02-26T11:59:38;15.00;65.20
37910;DHT22;23741;49.446;8.754;2024-02-26T12:03:42;15.10;65.30
37910;DHT22;23741;49.446;8.754;2024-02-26T12:05:43;15.10;65.30
37910;DHT22;23741;49.446;8.754;2024-02-26T12:07:46;15.10;65.30
37910;DHT22;23741;49.446;8.754;2024-02-26T12:09:51;15.20;65.50
37910;DHT22;23741;49.446;8.754;2024-02-26T12:11:53;15.20;65.50
37910;DHT22;23741;49.446;8.754;2024-02-26T12:13:56;15.20;65.30
37910;DHT22;23741;49.446;8.754;2024-02-26T12:15:58;15.30;65.30
37910;DHT22;23741;49.446;8.754;2024-02-26T12:18:02;15.30;65.30
37910;DHT22;23741;49.446;8.754;2024-02-26T12:20:08;15.30;65.20
37910;DHT22;23741;49.446;8.754;2024-02-26T12:22:12;15.30;65.00
37910;DHT22;23741;49.446;8.754;2024-02-26T12:24:14;15.30;64.80
37910;DHT22;23741;49.446;8.754;2024-02-26T12:26:19;15.40;64.70
37910;DHT22;23741;49.446;8.754;2024-02-26T12:28:21;15.40;64.70
37910;DHT22;23741;49.446;8.754;2024-02-26T12:30:23;15.40;64.80
37910;DHT22;23741;49.446;8.754;2024-02-26T12:32:27;15.40;64.80
37910;DHT22;23741;49.446;8.754;2024-02-26T12:34:29;15.40;64.60
37910;DHT22;23741;49.446;8.754;2024-02-26T12:36:31;15.40;64.50
37910;DHT22;23741;49.446;8.754;2024-02-26T12:38:34;15.50;64.50
37910;DHT22;23741;49.446;8.754;2024-02-26T12:40:38;15.50;64.40
37910;DHT22;23741;49.446;8.754;2024-02-26T12:42:43;15.50;64.30
37910;DHT22;23741;49.446;8.754;2024-02-26T12:44:46;15.50;64.40
37910;DHT22;23741;49.446;8.754;2024-02-26T12:46:48;15.50;64.50
37910;DHT22;23741;49.446;8.754;2024-02-26T12:48:49;15.60;64.30
37910;DHT22;23741;49.446;8.754;2024-02-26T12:50:51;15.60;64.30
37910;DHT22;23741;49.446;8.754;2024-02-26T12:52:53;15.60;64.20
37910;DHT22;23741;49.446;8.754;2024-02-26T12:54:55;15.60;63.70
37910;DHT22;23741;49.446;8.754;2024-02-26T12:56:57;15.60;63.70
37910;DHT22;23741;49.446;8.754;2024-02-26T12:58:59;15.60;63.80